createdAt,value
2023-05-15T00:00:52.358Z,13.55
2023-05-15T00:05:55.240Z,13.41
2023-05-15T00:11:02.025Z,13.34
2023-05-15T00:16:05.333Z,13.23
2023-05-15T00:21:08.067Z,13.19
2023-05-15T00:26:15.591Z,13.08
2023-05-15T00:31:18.335Z,13.13
2023-05-15T00:36:21.970Z,13.05
2023-05-15T00:41:31.965Z,12.88
2023-05-15T00:46:36.738Z,12.82
2023-05-15T00:51:40.030Z,12.83
2023-05-15T00:56:44.830Z,12.79
2023-05-15T01:01:47.511Z,12.76
2023-05-15T01:06:51.347Z,12.58
2023-05-15T01:11:56.291Z,12.47
2023-05-15T01:16:58.979Z,12.48
2023-05-15T01:22:30.728Z,12.40
2023-05-15T01:27:36.225Z,12.33
2023-05-15T01:32:42.868Z,12.26
2023-05-15T01:37:50.247Z,12.16
2023-05-15T01:42:56.229Z,11.88
2023-05-15T01:48:00.525Z,11.91
2023-05-15T01:53:04.586Z,11.83
2023-05-15T01:58:09.403Z,11.84
2023-05-15T02:03:12.225Z,11.95
2023-05-15T02:08:17.055Z,11.85
2023-05-15T02:13:21.257Z,11.77
2023-05-15T02:18:24.048Z,11.75
2023-05-15T02:23:26.800Z,11.72
2023-05-15T02:28:38.201Z,11.59
2023-05-15T02:33:47.895Z,11.59
2023-05-15T02:38:52.464Z,11.60
2023-05-15T02:43:57.504Z,11.60
2023-05-15T02:49:00.955Z,11.48
2023-05-15T02:54:03.879Z,11.48
2023-05-15T02:59:07.900Z,11.41
2023-05-15T03:04:10.674Z,11.34
2023-05-15T03:09:13.409Z,11.37
2023-05-15T03:14:17.516Z,11.26
2023-05-15T03:19:20.229Z,11.11
2023-05-15T03:24:22.904Z,11.00
2023-05-15T03:29:26.973Z,10.95
2023-05-15T03:34:29.711Z,10.91
2023-05-15T03:39:32.652Z,10.84
2023-05-15T03:44:36.656Z,11.07
2023-05-15T03:49:39.349Z,10.89
2023-05-15T03:54:42.908Z,10.86
2023-05-15T03:59:46.978Z,10.97
2023-05-15T04:04:49.757Z,10.96
2023-05-15T04:09:52.494Z,10.92
2023-05-15T04:14:56.739Z,10.97
2023-05-15T04:19:59.509Z,10.93
2023-05-15T04:25:04.823Z,10.87
2023-05-15T04:30:10.459Z,10.97
2023-05-15T04:35:14.132Z,11.02
2023-05-15T04:40:17.220Z,11.13
2023-05-15T04:45:21.515Z,11.10
2023-05-15T04:50:24.435Z,11.19
2023-05-15T04:55:27.542Z,11.35
2023-05-15T05:00:32.179Z,11.53
2023-05-15T05:05:34.980Z,11.44
2023-05-15T05:10:37.707Z,11.52
2023-05-15T05:15:41.871Z,11.47
2023-05-15T05:20:44.701Z,11.54
2023-05-15T05:25:47.563Z,11.93
2023-05-15T05:30:51.942Z,11.83
2023-05-15T05:35:55.677Z,12.06
2023-05-15T05:40:58.560Z,12.03
2023-05-15T05:46:02.987Z,12.29
2023-05-15T05:51:05.888Z,12.46
2023-05-15T05:56:09.304Z,12.90
2023-05-15T06:01:13.483Z,12.75
2023-05-15T06:06:16.339Z,12.82
2023-05-15T06:11:19.122Z,13.29
2023-05-15T06:16:23.295Z,13.31
2023-05-15T06:21:26.196Z,13.05
2023-05-15T06:26:28.963Z,13.35
2023-05-15T06:31:33.351Z,13.34
2023-05-15T06:36:36.120Z,13.57
2023-05-15T06:41:39.012Z,13.77
2023-05-15T06:46:49.366Z,14.01
2023-05-15T06:51:52.512Z,14.19
2023-05-15T06:56:55.348Z,14.40
2023-05-15T07:02:00.492Z,14.55
2023-05-15T07:07:03.436Z,14.81
2023-05-15T07:12:06.653Z,14.93
2023-05-15T07:17:11.095Z,14.90
2023-05-15T07:22:13.941Z,14.92
2023-05-15T07:27:16.680Z,14.55
2023-05-15T07:32:21.333Z,15.10
2023-05-15T07:37:24.815Z,15.24
2023-05-15T07:42:27.598Z,15.77
2023-05-15T07:47:31.722Z,15.51
2023-05-15T07:52:34.562Z,15.51
2023-05-15T07:57:37.674Z,15.83
2023-05-15T08:02:42.624Z,15.62
2023-05-15T08:07:45.541Z,16.09
2023-05-15T08:12:48.648Z,15.59
2023-05-15T08:17:52.808Z,15.28
2023-05-15T08:22:58.036Z,15.96
2023-05-15T08:28:00.927Z,16.34
2023-05-15T08:33:05.123Z,16.01
2023-05-15T08:38:07.919Z,15.96
2023-05-15T08:43:15.117Z,16.18
2023-05-15T08:48:20.415Z,15.59
2023-05-15T08:53:23.715Z,15.45
2023-05-15T08:58:28.656Z,15.56
2023-05-15T09:03:33.094Z,16.14
2023-05-15T09:08:36.497Z,16.53
2023-05-15T09:13:39.254Z,16.40
2023-05-15T09:18:43.882Z,16.27
2023-05-15T09:23:46.637Z,16.53
2023-05-15T09:28:49.989Z,17.13
2023-05-15T09:34:01.032Z,16.36
2023-05-15T09:39:04.371Z,16.92
2023-05-15T09:44:21.444Z,17.50
2023-05-15T09:49:26.778Z,16.93
2023-05-15T09:54:31.214Z,17.02
2023-05-15T09:59:33.977Z,17.55
2023-05-15T10:04:38.174Z,17.28
2023-05-15T10:09:41.172Z,17.93
2023-05-15T10:14:44.118Z,17.30
2023-05-15T10:19:57.761Z,16.61
2023-05-15T10:25:10.216Z,16.79
2023-05-15T10:30:13.835Z,16.95
2023-05-15T10:35:18.160Z,17.72
2023-05-15T10:40:21.141Z,17.42
2023-05-15T10:45:24.052Z,17.50
2023-05-15T10:50:28.454Z,17.64
2023-05-15T10:55:31.871Z,17.35
2023-05-15T11:00:34.622Z,17.65
2023-05-15T11:06:10.739Z,17.73
2023-05-15T11:11:48.917Z,17.90
2023-05-15T11:16:59.930Z,18.43
2023-05-15T11:22:04.047Z,18.50
2023-05-15T11:27:08.020Z,18.89
2023-05-15T11:32:34.008Z,18.38
2023-05-15T11:37:39.129Z,18.39
2023-05-15T11:42:42.460Z,18.62
2023-05-15T11:47:47.163Z,19.50
2023-05-15T11:52:50.594Z,19.20
2023-05-15T11:57:53.352Z,19.04
2023-05-15T12:02:57.631Z,19.34
2023-05-15T12:08:00.481Z,18.95
2023-05-15T12:13:03.226Z,19.69
2023-05-15T12:18:08.983Z,19.60
2023-05-15T12:23:11.913Z,20.15
2023-05-15T12:28:15.185Z,19.81
2023-05-15T12:33:19.698Z,19.48
2023-05-15T12:38:24.656Z,18.76
2023-05-15T12:43:27.792Z,19.09
2023-05-15T12:48:32.828Z,19.04
2023-05-15T12:53:36.016Z,19.38
2023-05-15T12:58:39.792Z,19.26
2023-05-15T13:03:44.730Z,19.63
2023-05-15T13:08:48.797Z,19.59
2023-05-15T13:13:51.649Z,19.35
2023-05-15T13:18:56.753Z,19.50
2023-05-15T13:23:59.443Z,19.53
2023-05-15T13:29:02.255Z,19.58
2023-05-15T13:34:06.452Z,19.48
2023-05-15T13:39:09.230Z,19.72
2023-05-15T13:44:11.938Z,19.62
2023-05-15T13:49:16.472Z,19.19
2023-05-15T13:54:19.329Z,19.30
2023-05-15T13:59:22.082Z,19.38
2023-05-15T14:04:26.158Z,19.33
2023-05-15T14:09:28.903Z,19.59
2023-05-15T14:14:31.616Z,19.58
2023-05-15T14:19:35.656Z,19.24
2023-05-15T14:24:38.329Z,19.33
2023-05-15T14:29:41.048Z,19.72
2023-05-15T14:34:45.283Z,19.58
2023-05-15T14:39:48.040Z,19.31
2023-05-15T14:44:50.742Z,20.07
2023-05-15T14:49:54.829Z,20.05
2023-05-15T14:55:08.462Z,19.69
2023-05-15T15:00:14.135Z,18.96
2023-05-15T15:05:18.611Z,18.97
2023-05-15T15:10:21.369Z,19.34
2023-05-15T15:15:24.366Z,19.14
2023-05-15T15:20:29.068Z,19.18
2023-05-15T15:25:32.936Z,18.99
2023-05-15T15:30:35.737Z,19.32
2023-05-15T15:35:40.060Z,19.47
2023-05-15T15:40:42.708Z,19.05
2023-05-15T15:45:45.429Z,19.47
2023-05-15T15:50:49.568Z,19.42
2023-05-15T15:55:52.279Z,18.98
2023-05-15T16:00:54.991Z,19.10
2023-05-15T16:06:00.280Z,19.15
2023-05-15T16:11:03.430Z,18.97
2023-05-15T16:16:06.393Z,19.17
2023-05-15T16:21:10.520Z,18.83
2023-05-15T16:26:13.234Z,18.65
2023-05-15T16:31:16.767Z,18.86
2023-05-15T16:36:20.832Z,18.73
2023-05-15T16:41:23.469Z,18.92
2023-05-15T16:46:26.357Z,18.66
2023-05-15T16:51:30.936Z,18.77
2023-05-15T16:56:33.617Z,18.68
2023-05-15T17:01:36.341Z,18.56
2023-05-15T17:06:40.357Z,18.57
2023-05-15T17:11:43.023Z,18.27
2023-05-15T17:16:46.067Z,18.26
2023-05-15T17:21:50.168Z,18.03
2023-05-15T17:26:52.870Z,18.01
2023-05-15T17:31:55.716Z,18.00
2023-05-15T17:36:59.797Z,17.91
2023-05-15T17:42:03.250Z,17.84
2023-05-15T17:47:06.247Z,17.82
2023-05-15T17:52:10.395Z,17.72
2023-05-15T17:57:13.046Z,17.51
2023-05-15T18:02:15.674Z,17.48
2023-05-15T18:07:19.702Z,17.36
2023-05-15T18:12:22.432Z,17.28
2023-05-15T18:17:25.175Z,17.02
2023-05-15T18:22:29.634Z,16.74
2023-05-15T18:27:32.302Z,16.63
2023-05-15T18:32:35.032Z,16.31
2023-05-15T18:37:39.153Z,16.28
2023-05-15T18:42:41.884Z,15.83
2023-05-15T18:47:44.629Z,15.64
2023-05-15T18:52:48.783Z,15.37
2023-05-15T18:57:51.665Z,15.25
2023-05-15T19:02:54.709Z,15.20
2023-05-15T19:07:58.904Z,15.08
2023-05-15T19:13:01.663Z,15.08
2023-05-15T19:18:04.414Z,14.95
2023-05-15T19:23:09.661Z,14.86
2023-05-15T19:28:13.396Z,14.69
2023-05-15T19:33:17.094Z,14.74
2023-05-15T19:38:21.410Z,14.56
2023-05-15T19:43:24.119Z,14.33
2023-05-15T19:48:26.806Z,14.32
2023-05-15T19:53:30.984Z,14.26
2023-05-15T19:58:33.678Z,14.08
2023-05-15T20:03:36.512Z,14.07
2023-05-15T20:08:40.673Z,13.90
2023-05-15T20:13:43.591Z,13.95
2023-05-15T20:18:47.796Z,14.05
2023-05-15T20:23:51.866Z,14.01
2023-05-15T20:28:54.558Z,14.01
2023-05-15T20:33:57.536Z,13.79
2023-05-15T20:39:06.090Z,13.96
2023-05-15T20:44:08.808Z,13.93
2023-05-15T20:49:11.893Z,13.89
2023-05-15T20:54:16.113Z,13.99
2023-05-15T20:59:18.797Z,13.94
2023-05-15T21:04:21.587Z,13.79
2023-05-15T21:09:25.695Z,13.18
2023-05-15T21:14:28.493Z,13.20
2023-05-15T21:19:31.215Z,12.80
2023-05-15T21:24:35.395Z,12.72
2023-05-15T21:29:38.087Z,12.78
2023-05-15T21:34:41.021Z,13.11
2023-05-15T21:39:45.340Z,12.47
2023-05-15T21:44:47.995Z,12.52
2023-05-15T21:49:50.940Z,12.04
2023-05-15T21:54:55.023Z,12.18
2023-05-15T21:59:57.693Z,11.99
2023-05-15T22:05:00.404Z,12.17
2023-05-15T22:10:05.278Z,12.01
2023-05-15T22:15:09.371Z,11.88
2023-05-15T22:20:13.848Z,11.80
2023-05-15T22:25:17.913Z,12.06
2023-05-15T22:30:21.102Z,11.69
2023-05-15T22:35:23.847Z,11.77
2023-05-15T22:40:28.237Z,11.83
2023-05-15T22:45:31.494Z,11.65
2023-05-15T22:50:34.319Z,11.93
2023-05-15T22:55:38.477Z,11.84
2023-05-15T23:00:41.483Z,11.54
2023-05-15T23:05:45.172Z,11.55
2023-05-15T23:10:49.401Z,11.53
2023-05-15T23:15:52.183Z,11.22
2023-05-15T23:20:55.019Z,11.69
2023-05-15T23:25:59.110Z,11.52
2023-05-15T23:31:01.917Z,11.31
2023-05-15T23:36:05.968Z,11.24
2023-05-15T23:41:10.028Z,11.06
2023-05-15T23:46:12.741Z,11.18
2023-05-15T23:51:15.708Z,11.02
2023-05-15T23:56:19.805Z,11.06
